Flight Track Log - Related Links

Times and Time Zones

All times are in EDT time to prevent confusion due to time zone crossing. See the SWA771 flight status page for this flight to view local times or setup timezone preferences in your user account.

Time Position Orientation Groundspeed Altitude Reporting Facility
EDT Latitude Longitude Course Direction KTS MPH feet Rate Location/Type
Sun 01:07:41 PM 38.6667 -121.5833 142° Southeast 173 199 1,800  Level Northern Cal TRACON
Sun 01:08:47 PM 38.6167 -121.5333 142° Southeast 221 254 4,600 3,050 Climbing Northern Cal TRACON
Sun 01:09:41 PM 38.5833 -121.4500 117° Southeast 266 306 7,900 3,526 Climbing Northern Cal TRACON
Sun 01:10:41 PM 38.5833 -121.3500 90° East 313 360 11,300 3,032 Climbing Northern Cal TRACON
Sun 01:11:14 PM 38.5667 -121.2967 112° Southeast 308 354 12,600 2,809 Climbing Oakland Center
Sun 01:12:15 PM 38.5481 -121.1772 101° East 334 384 15,700 3,049 Climbing Oakland Center
Sun 01:13:16 PM 38.5297 -121.0403 100° East 372 428 18,800 2,927 Climbing Oakland Center
Sun 01:14:18 PM 38.5094 -120.9031 101° East 389 448 21,700 2,683 Climbing Oakland Center
Sun 01:15:19 PM 38.4883 -120.7639 101° East 399 459 24,300 2,311 Climbing Oakland Center
Sun 01:16:20 PM 38.4669 -120.6194 101° East 412 474 26,400 2,066 Climbing Oakland Center
Sun 01:17:21 PM 38.4269 -120.4781 110° East 421 484 28,500 2,066 Climbing Oakland Center
Sun 01:18:22 PM 38.3858 -120.3369 110° East 424 488 30,600 1,967 Climbing Oakland Center
Sun 01:19:23 PM 38.3431 -120.1944 111° Southeast 429 494 32,500 1,171 Climbing Oakland Center
Sun 01:20:25 PM 38.2936 -120.0222 110° East 431 496 33,000 244 Climbing Oakland Center
Sun 01:21:26 PM 38.2500 -119.8803 111° Southeast 432 497 33,000  Level Oakland Center
Sun 01:22:27 PM 38.2081 -119.7375 110° East 432 497 33,000  Level Oakland Center
Sun 01:23:28 PM 38.1642 -119.5953 111° Southeast 431 496 33,000  Level Oakland Center
Sun 01:24:30 PM 38.1192 -119.4525 112° Southeast 434 499 33,000  Level Oakland Center
Sun 01:25:31 PM 38.0769 -119.3108 111° Southeast 432 497 33,000  Level Oakland Center
Sun 01:26:32 PM 38.0339 -119.1694 111° Southeast 430 495 33,000  Level Oakland Center
Sun 01:27:33 PM 37.9919 -119.0303 111° Southeast 431 496 33,000  Level Oakland Center
Sun 01:28:35 PM 37.9475 -118.8886 112° Southeast 433 498 33,000  Level Oakland Center
Sun 01:29:36 PM 37.8939 -118.7178 112° Southeast 436 502 33,000  Level Oakland Center
Sun 01:30:37 PM 37.8494 -118.5772 112° Southeast 432 497 33,000  Level Oakland Center
Sun 01:31:38 PM 37.8047 -118.4358 112° Southeast 433 498 33,000  Level Oakland Center
Sun 01:32:40 PM 37.7594 -118.2936 112° Southeast 436 502 33,000  Level Oakland Center
Sun 01:33:41 PM 37.7150 -118.1533 112° Southeast 433 498 33,000  Level Oakland Center
Sun 01:34:42 PM 37.6700 -118.0122 112° Southeast 434 499 33,000  Level Oakland Center
Sun 01:35:43 PM 37.6244 -117.8722 112° Southeast 435 501 33,000  Level Oakland Center
Sun 01:36:45 PM 37.5794 -117.7336 112° Southeast 430 495 33,000  Level Oakland Center
Sun 01:37:46 PM 37.5342 -117.5928 112° Southeast 434 499 33,000  Level Oakland Center
Sun 01:38:47 PM 37.4794 -117.4267 113° Southeast 432 497 33,000  Level Oakland Center
Sun 01:39:49 PM 37.4300 -117.2894 114° Southeast 434 499 33,000  Level Oakland Center
Sun 01:40:50 PM 37.3350 -117.1975 142° Southeast 434 499 33,000  Level Oakland Center
Sun 01:41:51 PM 37.2372 -117.1139 146° Southeast 427 491 33,000  Level Oakland Center
Sun 01:42:21 PM 37.1986 -117.0814 146° Southeast 428 493 33,000  Level Los Angeles Center
Sun 01:43:23 PM 37.0803 -116.9814 146° Southeast 428 493 33,000  Level Los Angeles Center
Sun 01:44:25 PM 36.9808 -116.8989 146° Southeast 428 493 33,000  Level Los Angeles Center
Sun 01:45:27 PM 36.8817 -116.8144 146° Southeast 431 496 33,000 -339 Level Los Angeles Center
Sun 01:46:29 PM 36.7844 -116.7272 144° Southeast 431 496 32,300 -871 Descending Los Angeles Center
Sun 01:47:31 PM 36.7047 -116.6106 130° Southeast 438 504 31,200 -1,776 Descending Los Angeles Center
Sun 01:48:34 PM 36.6258 -116.4956 131° Southeast 438 504 28,600 -2,640 Descending Los Angeles Center
Sun 01:49:36 PM 36.5339 -116.3653 131° Southeast 423 487 25,700 -2,565 Descending Los Angeles Center
Sun 01:50:38 PM 36.4592 -116.2611 132° Southeast 413 475 23,300 -2,390 Descending Los Angeles Center
Sun 01:51:39 PM 36.3797 -116.1508 132° Southeast 401 461 20,800 -2,345 Descending Los Angeles Center
Sun 01:52:28 PM 36.3219 -116.0706 132° Southeast 387 445 19,000 -2,276 Descending Los Angeles Center
Sun 01:53:35 PM 36.2486 -115.9661 131° Southeast 378 435 16,400 -1,343 Descending Los Angeles Center
Sun 01:54:42 PM 36.1867 -115.8558 125° Southeast 345 397 16,000 -197 Descending Los Angeles Center
Sun 01:55:37 PM 36.1553 -115.7594 112° Southeast 326 375 16,000 -440 Level Los Angeles Center
Sun 01:56:31 PM 36.1247 -115.6656 112° Southeast 324 373 15,200 -1,304 Descending Los Angeles Center
Sun 01:57:32 PM 36.0925 -115.5644 111° Southeast 319 367 13,500 -1,672 Descending Los Angeles Center
Sun 01:58:33 PM 36.0589 -115.4583 111° Southeast 316 364 11,800 -1,230 Descending Los Angeles Center
Sun 01:59:34 PM 36.0294 -115.3617 111° Southeast 295 339 11,000 -984 Descending Los Angeles Center
Sun 02:00:41 PM 36.0222 -115.2578 95° East 269 310 9,700 -1,078 Descending Los Angeles Center
Sun 02:01:42 PM 36.0142 -115.1619 96° East 265 305 8,700 -797 Descending Los Angeles Center
Sun 02:02:49 PM 36.0106 -115.0756 93° East 223 257 8,000 -744 Descending Los Angeles Center
Sun 02:03:43 PM 36.0067 -115.0078 94° East 209 241 7,200 -1,145 Descending Los Angeles Center
Sun 02:04:39 PM 36.0278 -114.9661 58° Northeast 200 230 5,900 -1,397 Descending Los Angeles Center
Sun 02:05:39 PM 36.0689 -114.9869 338° Northwest 168 193 4,500 -1,267 Descending Los Angeles Center
Sun 02:06:09 PM 36.0719 -115.0031 283° West 180 207 4,000 -1,075 Descending Los Angeles Center
Sun 02:06:46 PM 36.0733 -115.0467 272° West 154 177 3,300 -918 Descending Los Angeles Center
Sun 02:07:47 PM 36.0736 -115.0972 270° West 145 167 2,500 -787 Descending Los Angeles Center
Sun 02:10:00 PM 36.0667 -115.1500 270° West  Level FlightAware Approximate

Login

Don't have an account? Register now (free) for customized features, flight alerts, and more!